createdAt,value
2018-03-02T00:02:19.694Z,84.00
2018-03-02T00:04:46.095Z,84.70
2018-03-02T00:07:13.275Z,84.30
2018-03-02T00:09:39.750Z,84.20
2018-03-02T00:12:06.162Z,85.50
2018-03-02T00:14:32.542Z,86.10
2018-03-02T00:16:59.652Z,84.80
2018-03-02T00:19:26.154Z,85.20
2018-03-02T00:21:52.510Z,85.20
2018-03-02T00:24:18.890Z,85.30
2018-03-02T00:26:45.982Z,85.60
2018-03-02T00:29:12.413Z,84.90
2018-03-02T00:31:38.797Z,85.60
2018-03-02T00:34:05.973Z,87.10
2018-03-02T00:36:32.398Z,86.50
2018-03-02T00:38:58.767Z,85.20
2018-03-02T00:41:25.139Z,85.00
2018-03-02T00:43:52.991Z,85.00
2018-03-02T00:46:19.362Z,85.00
2018-03-02T00:48:46.463Z,84.90
2018-03-02T00:51:12.852Z,85.00
2018-03-02T00:53:39.242Z,85.20
2018-03-02T00:56:07.084Z,87.30
2018-03-02T00:58:33.438Z,87.30
2018-03-02T01:00:59.802Z,87.50
2018-03-02T01:03:26.176Z,86.50
2018-03-02T01:05:52.536Z,86.80
2018-03-02T01:08:18.934Z,86.70
2018-03-02T01:10:45.335Z,87.00
2018-03-02T01:13:11.700Z,87.30
2018-03-02T01:15:38.124Z,87.10
2018-03-02T01:18:04.547Z,84.50
2018-03-02T01:20:30.928Z,86.00
2018-03-02T01:22:57.295Z,87.60
2018-03-02T01:25:23.648Z,88.80
2018-03-02T01:27:50.027Z,89.30
2018-03-02T01:30:17.131Z,88.50
2018-03-02T01:32:43.494Z,87.70
2018-03-02T01:35:09.892Z,88.40
2018-03-02T01:37:36.306Z,88.30
2018-03-02T01:40:02.704Z,87.80
2018-03-02T01:42:29.833Z,89.10
2018-03-02T01:44:56.280Z,88.70
2018-03-02T01:47:22.666Z,89.50
2018-03-02T01:49:49.040Z,87.40
2018-03-02T01:52:15.402Z,87.40
2018-03-02T01:54:42.528Z,86.90
2018-03-02T01:57:08.874Z,86.90
2018-03-02T01:59:35.234Z,88.30
2018-03-02T02:02:01.617Z,88.70
2018-03-02T02:04:28.739Z,87.40
2018-03-02T02:06:55.100Z,87.40
2018-03-02T02:09:21.448Z,88.30
2018-03-02T02:11:48.551Z,88.60
2018-03-02T02:14:14.936Z,88.60
2018-03-02T02:16:41.338Z,89.50
2018-03-02T02:19:08.651Z,90.00
2018-03-02T02:21:35.035Z,90.00
2018-03-02T02:24:02.161Z,89.50
2018-03-02T02:26:28.581Z,89.50
2018-03-02T02:28:55.006Z,89.90
2018-03-02T02:31:21.363Z,89.50
2018-03-02T02:33:47.750Z,90.00
2018-03-02T02:36:14.124Z,88.70
2018-03-02T02:38:40.489Z,88.60
2018-03-02T02:41:06.852Z,89.60
2018-03-02T02:43:33.250Z,89.50
2018-03-02T02:46:00.383Z,89.00
2018-03-02T02:48:27.485Z,89.00
2018-03-02T02:50:53.850Z,89.00
2018-03-02T02:53:20.275Z,89.10
2018-03-02T02:55:46.627Z,88.50
2018-03-02T02:58:13.000Z,88.60
2018-03-02T03:00:39.372Z,88.40
2018-03-02T03:03:05.760Z,88.80
2018-03-02T03:05:32.140Z,89.10
2018-03-02T03:07:58.499Z,88.20
2018-03-02T03:10:24.874Z,88.80
2018-03-02T03:12:51.257Z,89.00
2018-03-02T03:15:18.351Z,87.80
2018-03-02T03:17:44.776Z,87.80
2018-03-02T03:20:11.144Z,88.30
2018-03-02T03:22:37.526Z,88.00
2018-03-02T03:25:03.944Z,88.10
2018-03-02T03:27:30.443Z,89.60
2018-03-02T03:29:57.604Z,90.20
2018-03-02T03:32:24.842Z,90.10
2018-03-02T03:34:51.239Z,90.10
2018-03-02T03:37:17.644Z,90.00
2018-03-02T03:39:44.738Z,87.90
2018-03-02T03:42:11.115Z,87.90
2018-03-02T03:44:38.218Z,90.00
2018-03-02T03:47:04.586Z,90.00
2018-03-02T03:49:31.687Z,90.20
2018-03-02T03:51:58.030Z,90.20
2018-03-02T03:54:24.402Z,90.30
2018-03-02T03:56:51.512Z,90.20
2018-03-02T03:59:17.894Z,90.20
2018-03-02T04:01:44.252Z,90.00
2018-03-02T04:04:10.636Z,89.40
2018-03-02T04:06:37.753Z,89.40
2018-03-02T04:09:04.152Z,89.50
2018-03-02T04:11:30.494Z,89.40
2018-03-02T04:13:56.869Z,89.50
2018-03-02T04:16:23.987Z,89.90
2018-03-02T04:18:50.407Z,89.30
2018-03-02T04:21:16.789Z,89.30
2018-03-02T04:23:43.894Z,88.30
2018-03-02T04:26:10.255Z,88.80
2018-03-02T04:28:36.640Z,88.50
2018-03-02T04:31:03.022Z,88.60
2018-03-02T04:33:42.426Z,88.30
2018-03-02T04:36:08.828Z,89.60
2018-03-02T04:38:35.203Z,89.50
2018-03-02T04:41:03.736Z,90.00
2018-03-02T04:43:30.088Z,90.00
2018-03-02T04:45:56.463Z,90.00
2018-03-02T04:48:23.600Z,90.00
2018-03-02T04:50:49.971Z,90.20
2018-03-02T04:53:17.071Z,90.10
2018-03-02T04:55:43.600Z,90.10
2018-03-02T04:58:09.976Z,90.00
2018-03-02T05:00:37.063Z,88.10
2018-03-02T05:03:03.430Z,88.10
2018-03-02T05:05:29.807Z,86.20
2018-03-02T05:07:56.177Z,87.70
2018-03-02T05:10:22.546Z,87.60
2018-03-02T05:12:49.663Z,89.40
2018-03-02T05:15:16.014Z,89.40
2018-03-02T05:17:42.375Z,90.00
2018-03-02T05:20:08.740Z,89.00
2018-03-02T05:22:35.089Z,88.60
2018-03-02T05:25:01.466Z,88.70
2018-03-02T05:27:27.904Z,88.30
2018-03-02T05:29:54.281Z,87.30
2018-03-02T05:32:20.647Z,88.60
2018-03-02T05:34:47.753Z,87.80
2018-03-02T05:37:14.133Z,87.80
2018-03-02T05:39:41.230Z,89.00
2018-03-02T05:42:07.603Z,89.00
2018-03-02T05:44:34.860Z,89.40
2018-03-02T05:47:01.991Z,88.30
2018-03-02T05:49:29.098Z,89.70
2018-03-02T05:51:55.462Z,89.40
2018-03-02T05:54:21.832Z,89.60
2018-03-02T05:56:48.958Z,88.80
2018-03-02T05:59:16.071Z,87.50
2018-03-02T06:01:42.504Z,87.50
2018-03-02T06:04:09.000Z,87.60
2018-03-02T06:06:35.372Z,88.50
2018-03-02T06:09:01.790Z,88.90
2018-03-02T06:11:28.234Z,89.40
2018-03-02T06:13:54.586Z,88.80
2018-03-02T06:16:21.949Z,88.40
2018-03-02T06:18:49.152Z,87.10
2018-03-02T06:21:15.571Z,87.10
2018-03-02T06:23:42.015Z,88.00
2018-03-02T06:26:08.411Z,86.60
2018-03-02T06:28:35.543Z,86.20
2018-03-02T06:31:01.964Z,86.20
2018-03-02T06:33:28.372Z,86.10
2018-03-02T06:35:54.798Z,87.20
2018-03-02T06:38:21.206Z,86.40
2018-03-02T06:40:47.595Z,86.70
2018-03-02T06:43:13.984Z,87.40
2018-03-02T06:45:40.346Z,86.60
2018-03-02T06:48:06.821Z,86.60
2018-03-02T06:50:33.232Z,85.90
2018-03-02T06:53:00.357Z,84.60
2018-03-02T06:55:26.795Z,84.50
2018-03-02T06:57:53.150Z,84.50
2018-03-02T07:00:20.272Z,83.50
2018-03-02T07:02:46.637Z,83.30
2018-03-02T07:05:13.029Z,82.60
2018-03-02T07:07:39.417Z,82.80
2018-03-02T07:10:05.804Z,82.50
2018-03-02T07:12:32.180Z,82.60
2018-03-02T07:14:58.564Z,81.50
2018-03-02T07:17:24.990Z,82.00
2018-03-02T07:19:51.334Z,80.90
2018-03-02T07:22:17.706Z,81.20
2018-03-02T07:24:44.139Z,82.50
2018-03-02T07:27:11.259Z,81.10
2018-03-02T07:29:38.381Z,81.30
2018-03-02T07:32:04.775Z,81.20
2018-03-02T07:34:31.921Z,80.20
2018-03-02T07:36:58.292Z,80.20
2018-03-02T07:39:24.712Z,80.70
2018-03-02T07:41:51.068Z,82.30
2018-03-02T07:44:17.486Z,84.30
2018-03-02T07:46:43.876Z,83.10
2018-03-02T07:49:10.279Z,81.90
2018-03-02T07:51:36.630Z,82.00
2018-03-02T07:54:03.735Z,81.80
2018-03-02T07:56:30.103Z,81.80
2018-03-02T07:58:57.274Z,81.10
2018-03-02T08:01:24.015Z,81.10
2018-03-02T08:03:50.383Z,81.90
2018-03-02T08:06:16.985Z,82.60
2018-03-02T08:08:43.459Z,82.20
2018-03-02T08:11:09.846Z,81.40
2018-03-02T08:13:40.343Z,82.50
2018-03-02T08:16:06.707Z,81.30
2018-03-02T08:18:33.819Z,82.30
2018-03-02T08:21:00.187Z,82.30
2018-03-02T08:23:26.590Z,83.10
2018-03-02T08:25:53.017Z,81.80
2018-03-02T08:28:19.442Z,81.70
2018-03-02T08:30:47.281Z,82.20
2018-03-02T08:33:13.650Z,82.20
2018-03-02T08:35:40.982Z,84.40
2018-03-02T08:38:07.364Z,85.50
2018-03-02T08:40:33.779Z,85.40
2018-03-02T08:43:00.491Z,84.90
2018-03-02T08:45:26.869Z,83.80
2018-03-02T08:47:53.244Z,83.20
2018-03-02T08:50:19.603Z,83.30
2018-03-02T08:52:45.961Z,84.10
2018-03-02T08:55:13.060Z,83.30
2018-03-02T08:57:39.439Z,83.30
2018-03-02T09:00:05.820Z,84.00
2018-03-02T09:02:32.201Z,85.40
2018-03-02T09:04:58.632Z,85.90
2018-03-02T09:07:25.773Z,83.80
2018-03-02T09:09:52.875Z,85.20
2018-03-02T09:12:19.231Z,85.10
2018-03-02T09:14:45.603Z,83.60
2018-03-02T09:17:11.967Z,83.90
2018-03-02T09:19:38.383Z,83.60
2018-03-02T09:22:04.771Z,84.70
2018-03-02T09:24:32.079Z,84.90
2018-03-02T09:26:58.460Z,85.00
2018-03-02T09:29:25.606Z,82.70
2018-03-02T09:31:52.705Z,84.10
2018-03-02T09:34:19.108Z,84.10
2018-03-02T09:36:45.558Z,83.80
2018-03-02T09:39:11.950Z,82.60
2018-03-02T09:41:39.061Z,83.00
2018-03-02T09:44:11.575Z,83.00
2018-03-02T09:46:38.732Z,84.90
2018-03-02T09:49:05.087Z,84.90
2018-03-02T09:51:31.510Z,82.40
2018-03-02T09:53:57.950Z,81.70
2018-03-02T09:56:24.312Z,84.30
2018-03-02T09:58:50.675Z,82.50
2018-03-02T10:01:17.084Z,83.00
2018-03-02T10:03:43.513Z,84.30
2018-03-02T10:06:09.928Z,84.20
2018-03-02T10:08:36.317Z,83.70
2018-03-02T10:11:03.430Z,84.20
2018-03-02T10:13:29.847Z,84.20
2018-03-02T10:15:56.279Z,83.40
2018-03-02T10:18:22.691Z,82.30
2018-03-02T10:20:49.114Z,82.70
2018-03-02T10:23:15.483Z,82.40
2018-03-02T10:25:41.886Z,83.20
2018-03-02T10:28:08.316Z,84.00
2018-03-02T10:30:34.732Z,82.40
2018-03-02T10:33:01.205Z,82.80
2018-03-02T10:35:27.612Z,82.60
2018-03-02T10:37:54.012Z,83.00
2018-03-02T10:40:21.122Z,82.70
2018-03-02T10:42:47.471Z,82.60
2018-03-02T10:45:13.862Z,82.70
2018-03-02T10:47:40.349Z,83.00
2018-03-02T10:50:06.714Z,82.50
2018-03-02T10:52:33.110Z,83.70
2018-03-02T10:54:59.731Z,84.50
2018-03-02T10:57:26.112Z,83.20
2018-03-02T10:59:52.488Z,83.30
2018-03-02T11:02:20.689Z,83.80
2018-03-02T11:04:47.051Z,84.60
2018-03-02T11:07:13.443Z,83.60
2018-03-02T11:09:39.894Z,83.20
2018-03-02T11:12:06.999Z,83.00
2018-03-02T11:14:33.352Z,83.00
2018-03-02T11:16:59.733Z,83.40
2018-03-02T11:19:26.115Z,83.40
2018-03-02T11:21:52.515Z,84.20
2018-03-02T11:24:18.922Z,83.80
2018-03-02T11:26:45.331Z,83.20
2018-03-02T11:31:50.174Z,83.90
2018-03-02T11:34:16.548Z,84.00
2018-03-02T11:36:42.915Z,82.40
2018-03-02T11:39:09.296Z,82.60
2018-03-02T11:41:35.691Z,81.80
2018-03-02T11:44:02.056Z,81.70
2018-03-02T11:46:28.411Z,84.10
2018-03-02T11:48:54.834Z,81.80
2018-03-02T11:51:21.196Z,82.30
2018-03-02T11:53:47.570Z,82.90
2018-03-02T11:56:14.689Z,84.60
2018-03-02T11:58:41.882Z,84.20
2018-03-02T12:01:08.239Z,84.20
2018-03-02T12:03:34.610Z,83.50
2018-03-02T12:06:00.980Z,80.10
2018-03-02T12:08:27.331Z,82.30
2018-03-02T12:10:53.716Z,80.20
2018-03-02T12:13:20.825Z,82.50
2018-03-02T12:15:47.188Z,81.80
2018-03-02T12:18:13.578Z,79.50
2018-03-02T12:20:39.960Z,81.00
2018-03-02T12:23:06.422Z,81.60
2018-03-02T12:25:32.825Z,80.70
2018-03-02T12:27:59.984Z,82.10
2018-03-02T12:30:27.118Z,82.10
2018-03-02T12:32:53.477Z,82.10
2018-03-02T12:35:20.581Z,81.50
2018-03-02T12:37:48.418Z,82.00
2018-03-02T12:40:14.785Z,82.00
2018-03-02T12:42:41.154Z,82.40
2018-03-02T12:45:08.280Z,82.50
2018-03-02T12:47:35.384Z,83.50
2018-03-02T12:50:02.595Z,83.70
2018-03-02T12:52:29.752Z,83.40
2018-03-02T12:54:56.145Z,83.40
2018-03-02T12:57:22.595Z,82.50
2018-03-02T12:59:49.731Z,83.30
2018-03-02T13:02:16.094Z,83.30
2018-03-02T13:04:42.536Z,83.60
2018-03-02T13:07:08.918Z,83.20
2018-03-02T13:09:35.276Z,82.10
2018-03-02T13:12:02.405Z,82.60
2018-03-02T13:14:28.771Z,82.60
2018-03-02T13:16:56.266Z,84.80
2018-03-02T13:19:22.638Z,84.80
2018-03-02T13:21:49.762Z,84.60
2018-03-02T13:24:16.400Z,84.10
2018-03-02T13:26:55.046Z,83.60
2018-03-02T13:29:22.166Z,83.20
2018-03-02T13:31:48.567Z,83.20
2018-03-02T13:34:27.102Z,84.00
2018-03-02T13:36:53.464Z,83.80
2018-03-02T13:39:32.085Z,84.00
2018-03-02T13:42:06.390Z,83.80
2018-03-02T13:44:32.816Z,82.70
2018-03-02T13:47:00.278Z,83.00
2018-03-02T13:49:39.755Z,84.00
2018-03-02T13:52:06.175Z,83.80
2018-03-02T13:54:33.298Z,83.80
2018-03-02T13:57:11.990Z,83.70
2018-03-02T13:59:38.419Z,83.70
2018-03-02T14:02:04.772Z,83.10
2018-03-02T14:04:43.311Z,82.50
2018-03-02T14:07:09.698Z,82.60
2018-03-02T14:09:36.699Z,82.10
2018-03-02T14:12:03.832Z,82.10
2018-03-02T14:14:30.990Z,82.60
2018-03-02T14:16:57.350Z,82.60
2018-03-02T14:19:23.706Z,83.70
2018-03-02T14:21:50.129Z,83.50
2018-03-02T14:24:16.542Z,85.00
2018-03-02T14:26:43.630Z,84.10
2018-03-02T14:29:10.007Z,84.10
2018-03-02T14:31:37.111Z,84.40
2018-03-02T14:34:03.515Z,84.40
2018-03-02T14:36:29.920Z,84.30
2018-03-02T14:38:57.051Z,84.30
2018-03-02T14:41:23.438Z,84.30
2018-03-02T14:43:49.819Z,85.90
2018-03-02T14:46:16.942Z,85.30
2018-03-02T14:48:43.286Z,84.90
2018-03-02T14:51:09.666Z,83.80
2018-03-02T14:53:36.914Z,83.90
2018-03-02T14:56:03.491Z,83.10
2018-03-02T14:58:29.880Z,82.70
2018-03-02T15:00:56.248Z,82.30
2018-03-02T15:03:22.644Z,83.20
2018-03-02T15:05:49.050Z,83.80
2018-03-02T15:08:15.428Z,83.60
2018-03-02T15:10:41.850Z,82.40
2018-03-02T15:13:08.205Z,82.40
2018-03-02T15:15:34.559Z,83.50
2018-03-02T15:18:02.422Z,84.10
2018-03-02T15:20:30.270Z,84.70
2018-03-02T15:22:56.638Z,84.70
2018-03-02T15:25:23.765Z,83.90
2018-03-02T15:27:50.127Z,83.90
2018-03-02T15:30:17.250Z,83.80
2018-03-02T15:32:43.636Z,83.80
2018-03-02T15:35:10.099Z,83.80
2018-03-02T15:37:37.994Z,83.70
2018-03-02T15:40:04.419Z,83.70
2018-03-02T15:42:32.507Z,83.20
2018-03-02T15:44:59.590Z,82.80
2018-03-02T15:47:26.133Z,83.30
2018-03-02T15:49:52.543Z,83.30
2018-03-02T15:52:19.676Z,82.30
2018-03-02T15:54:46.780Z,83.40
2018-03-02T15:57:13.183Z,83.40
2018-03-02T15:59:39.562Z,85.20
2018-03-02T16:02:06.260Z,83.70
2018-03-02T16:04:32.650Z,83.40
2018-03-02T16:06:59.015Z,83.00
2018-03-02T16:09:25.419Z,83.30
2018-03-02T16:11:52.559Z,82.30
2018-03-02T16:14:18.953Z,82.10
2018-03-02T16:16:46.142Z,82.20
2018-03-02T16:19:12.555Z,82.70
2018-03-02T16:21:38.919Z,83.50
2018-03-02T16:24:05.306Z,83.70
2018-03-02T16:26:31.684Z,83.90
2018-03-02T16:28:58.786Z,83.70
2018-03-02T16:31:25.279Z,83.70
2018-03-02T16:33:51.657Z,84.20
2018-03-02T16:36:18.454Z,84.70
2018-03-02T16:38:45.481Z,85.10
2018-03-02T16:41:13.510Z,84.40
2018-03-02T16:43:39.961Z,84.40
2018-03-02T16:46:06.397Z,83.80
2018-03-02T16:48:34.299Z,85.50
2018-03-02T16:51:00.723Z,85.50
2018-03-02T16:53:27.156Z,84.70
2018-03-02T16:55:53.632Z,84.20
2018-03-02T16:58:19.988Z,84.50
2018-03-02T17:00:46.363Z,84.20
2018-03-02T17:03:12.772Z,83.50
2018-03-02T17:05:39.147Z,83.70
2018-03-02T17:08:05.555Z,85.70
2018-03-02T17:10:32.686Z,84.90
2018-03-02T17:12:59.819Z,84.40
2018-03-02T17:15:26.231Z,84.40
2018-03-02T17:17:52.579Z,83.50
2018-03-02T17:20:18.961Z,83.30
2018-03-02T17:22:45.363Z,83.50
2018-03-02T17:25:12.486Z,81.50
2018-03-02T17:27:38.842Z,81.50
2018-03-02T17:30:05.994Z,81.60
2018-03-02T17:32:33.114Z,80.40
2018-03-02T17:34:59.462Z,80.40
2018-03-02T17:37:25.818Z,80.40
2018-03-02T17:39:52.991Z,79.80
2018-03-02T17:42:19.366Z,79.80
2018-03-02T17:44:45.719Z,79.80
2018-03-02T17:47:12.830Z,79.80
2018-03-02T17:49:39.243Z,79.80
2018-03-02T17:52:05.600Z,80.20
2018-03-02T17:54:31.986Z,80.60
2018-03-02T17:56:58.360Z,81.60
2018-03-02T17:59:24.738Z,81.20
2018-03-02T18:01:51.110Z,80.70
2018-03-02T18:04:17.466Z,80.80
2018-03-02T18:06:43.818Z,80.90
2018-03-02T18:09:10.945Z,81.20
2018-03-02T18:11:38.794Z,80.40
2018-03-02T18:14:05.202Z,80.30
2018-03-02T18:16:31.567Z,80.80
2018-03-02T18:18:58.662Z,80.70
2018-03-02T18:21:25.882Z,80.20
2018-03-02T18:23:53.783Z,80.10
2018-03-02T18:26:20.192Z,80.10
2018-03-02T18:28:47.320Z,80.20
2018-03-02T18:31:13.704Z,80.20
2018-03-02T18:33:40.090Z,80.10
2018-03-02T18:36:06.484Z,80.20
2018-03-02T18:38:32.896Z,80.40
2018-03-02T18:40:59.276Z,80.20
2018-03-02T18:43:26.440Z,80.30
2018-03-02T18:45:52.830Z,80.20
2018-03-02T18:48:19.236Z,80.00
2018-03-02T18:50:45.672Z,80.60
2018-03-02T18:53:12.101Z,80.70
2018-03-02T18:55:38.485Z,80.40
2018-03-02T18:58:04.868Z,80.40
2018-03-02T19:00:31.272Z,80.20
2018-03-02T19:02:58.435Z,79.70
2018-03-02T19:05:25.593Z,79.50
2018-03-02T19:07:51.979Z,79.50
2018-03-02T19:10:18.377Z,79.40
2018-03-02T19:12:44.746Z,79.60
2018-03-02T19:15:11.124Z,79.20
2018-03-02T19:17:37.505Z,79.30
2018-03-02T19:20:03.946Z,79.80
2018-03-02T19:22:30.344Z,79.90
2018-03-02T19:24:56.786Z,80.20
2018-03-02T19:27:23.193Z,80.10
2018-03-02T19:29:49.600Z,79.70
2018-03-02T19:32:16.693Z,80.00
2018-03-02T19:34:43.163Z,80.00
2018-03-02T19:37:09.538Z,80.40
2018-03-02T19:39:35.898Z,80.40
2018-03-02T19:42:02.259Z,80.00
2018-03-02T19:44:28.687Z,80.30
2018-03-02T19:46:55.093Z,80.20
2018-03-02T19:49:21.442Z,80.50
2018-03-02T19:51:47.861Z,80.70
2018-03-02T19:54:15.150Z,80.40
2018-03-02T19:56:42.251Z,80.70
2018-03-02T19:59:08.617Z,80.70
2018-03-02T20:01:34.976Z,80.50
2018-03-02T20:04:02.196Z,79.80
2018-03-02T20:06:28.779Z,79.70
2018-03-02T20:08:55.143Z,79.70
2018-03-02T20:11:21.507Z,80.10
2018-03-02T20:13:47.874Z,80.30
2018-03-02T20:16:14.294Z,80.40
2018-03-02T20:18:41.410Z,80.40
2018-03-02T20:21:07.786Z,80.40
2018-03-02T20:23:34.151Z,80.60
2018-03-02T20:26:01.265Z,80.80
2018-03-02T20:28:27.756Z,80.80
2018-03-02T20:30:54.877Z,80.80
2018-03-02T20:33:21.243Z,80.80
2018-03-02T20:35:48.382Z,80.90
2018-03-02T20:38:14.785Z,80.80
2018-03-02T20:40:41.150Z,80.80
2018-03-02T20:43:08.261Z,80.60
2018-03-02T20:45:34.661Z,80.50
2018-03-02T20:48:01.779Z,80.30
2018-03-02T20:50:28.162Z,80.20
2018-03-02T20:52:54.542Z,80.40
2018-03-02T20:55:20.904Z,80.70
2018-03-02T20:57:48.055Z,80.90
2018-03-02T21:00:14.415Z,80.90
2018-03-02T21:02:40.895Z,80.00
2018-03-02T21:05:07.266Z,80.80
2018-03-02T21:07:33.660Z,80.90
2018-03-02T21:10:00.027Z,80.60
2018-03-02T21:12:26.393Z,80.10
2018-03-02T21:14:52.738Z,80.10
2018-03-02T21:17:19.118Z,80.00
2018-03-02T21:19:45.479Z,80.50
2018-03-02T21:22:11.895Z,80.80
2018-03-02T21:24:38.272Z,80.90
2018-03-02T21:27:04.631Z,81.00
2018-03-02T21:29:31.732Z,80.60
2018-03-02T21:31:58.138Z,80.60
2018-03-02T21:34:24.517Z,80.30
2018-03-02T21:36:50.877Z,80.60
2018-03-02T21:39:17.236Z,80.30
2018-03-02T21:41:43.618Z,80.20
2018-03-02T21:44:10.734Z,80.30
2018-03-02T21:46:37.097Z,80.30
2018-03-02T21:49:04.193Z,81.30
2018-03-02T21:51:30.572Z,81.30
2018-03-02T21:53:56.930Z,81.10
2018-03-02T21:56:23.316Z,81.30
2018-03-02T21:58:49.713Z,81.00
2018-03-02T22:01:16.085Z,80.30
2018-03-02T22:03:42.457Z,79.60
2018-03-02T22:06:08.842Z,79.50
2018-03-02T22:08:35.231Z,79.30
2018-03-02T22:11:01.637Z,79.50
2018-03-02T22:13:28.795Z,79.70
2018-03-02T22:15:55.195Z,79.70
2018-03-02T22:18:21.564Z,79.50
2018-03-02T22:20:48.730Z,80.00
2018-03-02T22:23:15.838Z,80.30
2018-03-02T22:25:42.957Z,80.30
2018-03-02T22:28:09.323Z,80.20
2018-03-02T22:30:36.432Z,80.60
2018-03-02T22:33:02.859Z,80.30
2018-03-02T22:35:29.278Z,80.20
2018-03-02T22:37:55.660Z,80.50
2018-03-02T22:40:23.502Z,80.80
2018-03-02T22:42:49.860Z,80.20
2018-03-02T22:45:16.239Z,79.50
2018-03-02T22:47:42.620Z,80.00
2018-03-02T22:50:09.738Z,80.80
2018-03-02T22:52:36.117Z,80.30
2018-03-02T22:55:03.235Z,80.50
2018-03-02T22:57:29.618Z,80.50
2018-03-02T22:59:55.999Z,80.20
2018-03-02T23:02:22.373Z,80.50
2018-03-02T23:04:48.741Z,80.60
2018-03-02T23:07:15.102Z,80.20
2018-03-02T23:09:41.518Z,79.90
2018-03-02T23:12:07.878Z,79.80
2018-03-02T23:14:35.005Z,80.00
2018-03-02T23:17:01.378Z,80.10
2018-03-02T23:19:27.744Z,80.00
2018-03-02T23:21:54.112Z,80.00
2018-03-02T23:24:20.486Z,79.60
2018-03-02T23:26:46.850Z,79.90
2018-03-02T23:29:13.210Z,80.90
2018-03-02T23:31:40.329Z,80.60
2018-03-02T23:34:06.686Z,80.40
2018-03-02T23:36:33.798Z,79.70
2018-03-02T23:39:00.158Z,80.20
2018-03-02T23:41:26.603Z,80.00
2018-03-02T23:43:53.696Z,80.50
2018-03-02T23:46:20.083Z,80.50
2018-03-02T23:48:47.197Z,80.50
2018-03-02T23:51:13.626Z,80.40
2018-03-02T23:53:39.995Z,80.30
2018-03-02T23:56:07.140Z,80.80
2018-03-02T23:58:34.252Z,81.20
